VCP11X EGAC-EBCI
Flight info
| Callsign | VCP11X |
|---|---|
| Flight time | 1h 13m |
| Altitude | 25000 |
| Route | DUFFY DCT PEPOD Q38 SOSIM/N0441F270 Q38 GIGTO/N0456F390 Q38 MALUD L15 HON L10 BPK/N0416F230 L10 DVR/N0458F390 UL9 KONAN UL607 KOK |
| Aircraft | B737/M-SDE2E3FGHIRWXY/LB1 |
Departure
| Time | 2026-05-05 12:44 |
|---|---|
| Airport | George Best Belfast City Airport (EGAC) |
Arrival
| Time | 2026-05-05 13:57 |
|---|---|
| Airport | Brussels South Charleroi Airport (EBCI) |
| Time | Latitude | Longitude | Altitude | Speed | Heading |
|---|---|---|---|---|---|
| 2026-05-05 12:15 | 54.61165 | -5.87515 | 18 ft | 0 kts | 100° |
| 2026-05-05 12:37 | 54.61168 | -5.87546 | 18 ft | 4 kts | 100° |
| 2026-05-05 12:37 | 54.61172 | -5.87583 | 17 ft | 4 kts | 104° |
| 2026-05-05 12:37 | 54.61181 | -5.87626 | 16 ft | 4 kts | 126° |
| 2026-05-05 12:37 | 54.61199 | -5.87653 | 15 ft | 4 kts | 176° |
| 2026-05-05 12:38 | 54.61221 | -5.87640 | 17 ft | 4 kts | 214° |
| 2026-05-05 12:38 | 54.61231 | -5.87627 | 18 ft | 0 kts | 214° |
| 2026-05-05 12:41 | 54.61220 | -5.87641 | 16 ft | 5 kts | 214° |
| 2026-05-05 12:41 | 54.61178 | -5.87691 | 15 ft | 9 kts | 214° |
| 2026-05-05 12:41 | 54.61129 | -5.87749 | 17 ft | 8 kts | 214° |
| 2026-05-05 12:41 | 54.61088 | -5.87818 | 18 ft | 8 kts | 244° |
| 2026-05-05 12:42 | 54.61091 | -5.87914 | 19 ft | 8 kts | 297° |
| 2026-05-05 12:42 | 54.61113 | -5.87968 | 17 ft | 8 kts | 311° |
| 2026-05-05 12:42 | 54.61141 | -5.88017 | 17 ft | 0 kts | 321° |
| 2026-05-05 12:43 | 54.61142 | -5.88018 | 17 ft | 0 kts | 322° |
| 2026-05-05 12:43 | 54.61162 | -5.88023 | 17 ft | 5 kts | 15° |
| 2026-05-05 12:43 | 54.61249 | -5.87921 | 15 ft | 45 kts | 34° |
| 2026-05-05 12:44 | 54.61536 | -5.87580 | 13 ft | 104 kts | 34° |
| 2026-05-05 12:44 | 54.62307 | -5.86640 | 229 ft | 156 kts | 36° |
| 2026-05-05 12:44 | 54.63225 | -5.85462 | 1113 ft | 159 kts | 35° |
| 2026-05-05 12:44 | 54.64048 | -5.83413 | 2661 ft | 176 kts | 77° |
| 2026-05-05 12:45 | 54.63824 | -5.81067 | 3021 ft | 224 kts | 111° |
| 2026-05-05 12:45 | 54.63190 | -5.79501 | 2988 ft | 245 kts | 135° |
| 2026-05-05 12:45 | 54.61155 | -5.77710 | 3005 ft | 259 kts | 160° |
| 2026-05-05 12:45 | 54.59997 | -5.77025 | 2990 ft | 270 kts | 161° |
| 2026-05-05 12:46 | 54.58190 | -5.75983 | 2977 ft | 277 kts | 161° |
| 2026-05-05 12:46 | 54.56376 | -5.74925 | 2999 ft | 273 kts | 161° |
| 2026-05-05 12:46 | 54.54577 | -5.73856 | 3163 ft | 276 kts | 160° |
| 2026-05-05 12:46 | 54.52767 | -5.72760 | 4269 ft | 274 kts | 160° |
| 2026-05-05 12:47 | 54.50960 | -5.71656 | 5560 ft | 279 kts | 160° |
| 2026-05-05 12:47 | 54.49110 | -5.70518 | 6712 ft | 285 kts | 160° |
| 2026-05-05 12:47 | 54.47235 | -5.69360 | 7903 ft | 287 kts | 160° |
| 2026-05-05 12:47 | 54.45371 | -5.68205 | 9041 ft | 291 kts | 161° |
| 2026-05-05 12:48 | 54.43429 | -5.67002 | 10018 ft | 301 kts | 161° |
| 2026-05-05 12:48 | 54.41416 | -5.65755 | 10724 ft | 320 kts | 161° |
| 2026-05-05 12:48 | 54.39217 | -5.64395 | 10971 ft | 351 kts | 161° |
| 2026-05-05 12:48 | 54.36837 | -5.62921 | 11445 ft | 372 kts | 161° |
| 2026-05-05 12:49 | 54.34400 | -5.61410 | 12531 ft | 372 kts | 161° |
| 2026-05-05 12:49 | 54.31943 | -5.59890 | 13513 ft | 379 kts | 161° |
| 2026-05-05 12:49 | 54.29462 | -5.58275 | 14436 ft | 386 kts | 156° |
| 2026-05-05 12:49 | 54.27161 | -5.55863 | 15402 ft | 391 kts | 143° |
| 2026-05-05 12:50 | 54.25187 | -5.52628 | 16396 ft | 397 kts | 130° |
| 2026-05-05 12:50 | 54.23539 | -5.48797 | 17347 ft | 402 kts | 126° |
| 2026-05-05 12:50 | 54.21933 | -5.44834 | 18233 ft | 409 kts | 126° |
| 2026-05-05 12:50 | 54.20305 | -5.40889 | 19009 ft | 414 kts | 127° |
| 2026-05-05 12:51 | 54.18612 | -5.36874 | 19822 ft | 418 kts | 127° |
| 2026-05-05 12:51 | 54.16898 | -5.32830 | 20586 ft | 424 kts | 127° |
| 2026-05-05 12:51 | 54.15166 | -5.28751 | 20984 ft | 426 kts | 127° |
| 2026-05-05 12:51 | 54.13425 | -5.24651 | 21072 ft | 427 kts | 127° |
| 2026-05-05 12:52 | 54.11683 | -5.20553 | 21150 ft | 431 kts | 127° |
| 2026-05-05 12:52 | 54.09908 | -5.16383 | 21821 ft | 435 kts | 127° |
| 2026-05-05 12:52 | 54.08133 | -5.12215 | 22781 ft | 434 kts | 128° |
| 2026-05-05 12:52 | 54.06352 | -5.08042 | 23594 ft | 438 kts | 128° |
| 2026-05-05 12:53 | 54.04574 | -5.03886 | 24149 ft | 443 kts | 128° |
| 2026-05-05 12:53 | 54.02751 | -4.99630 | 24736 ft | 447 kts | 128° |
| 2026-05-05 12:53 | 54.00909 | -4.95332 | 25066 ft | 451 kts | 128° |
| 2026-05-05 12:53 | 53.99059 | -4.91025 | 25064 ft | 450 kts | 128° |
| 2026-05-05 12:54 | 53.95357 | -4.82458 | 25085 ft | 450 kts | 128° |
| 2026-05-05 12:54 | 53.93495 | -4.78184 | 25075 ft | 450 kts | 129° |
| 2026-05-05 12:54 | 53.91627 | -4.73909 | 25075 ft | 451 kts | 129° |
| 2026-05-05 12:55 | 53.89761 | -4.69642 | 25055 ft | 451 kts | 129° |
| 2026-05-05 12:55 | 53.87896 | -4.65378 | 25069 ft | 450 kts | 129° |
| 2026-05-05 12:55 | 53.86032 | -4.61122 | 25070 ft | 449 kts | 129° |
| 2026-05-05 12:55 | 53.84174 | -4.56884 | 25064 ft | 448 kts | 129° |
| 2026-05-05 12:56 | 53.82342 | -4.52715 | 25069 ft | 448 kts | 129° |
| 2026-05-05 12:56 | 53.80466 | -4.48451 | 25220 ft | 455 kts | 129° |
| 2026-05-05 12:56 | 53.78575 | -4.44141 | 25866 ft | 456 kts | 129° |
| 2026-05-05 12:56 | 53.76690 | -4.39838 | 26597 ft | 455 kts | 129° |
| 2026-05-05 12:57 | 53.74800 | -4.35529 | 27183 ft | 458 kts | 129° |
| 2026-05-05 12:57 | 53.72893 | -4.31190 | 27661 ft | 463 kts | 129° |
| 2026-05-05 12:57 | 53.70963 | -4.26808 | 28144 ft | 467 kts | 129° |
| 2026-05-05 12:57 | 53.69019 | -4.22401 | 28644 ft | 470 kts | 129° |
| 2026-05-05 12:58 | 53.67087 | -4.18027 | 29122 ft | 472 kts | 129° |
| 2026-05-05 12:58 | 53.65118 | -4.13577 | 29583 ft | 474 kts | 128° |
| 2026-05-05 12:58 | 53.63141 | -4.09122 | 30097 ft | 475 kts | 128° |
| 2026-05-05 12:58 | 53.61159 | -4.04684 | 30578 ft | 474 kts | 128° |
| 2026-05-05 12:59 | 53.59176 | -4.00272 | 31083 ft | 471 kts | 128° |
| 2026-05-05 12:59 | 53.57199 | -3.95884 | 31588 ft | 470 kts | 128° |
| 2026-05-05 12:59 | 53.55224 | -3.91507 | 32045 ft | 469 kts | 128° |
| 2026-05-05 13:00 | 53.51310 | -3.82844 | 32928 ft | 468 kts | 129° |
| 2026-05-05 13:00 | 53.49344 | -3.78501 | 33386 ft | 466 kts | 129° |
| 2026-05-05 13:01 | 53.43468 | -3.65558 | 34572 ft | 464 kts | 129° |
| 2026-05-05 13:01 | 53.41503 | -3.61251 | 34838 ft | 466 kts | 129° |
| 2026-05-05 13:01 | 53.39444 | -3.57056 | 35134 ft | 466 kts | 133° |
| 2026-05-05 13:01 | 53.37321 | -3.53054 | 35400 ft | 466 kts | 133° |
| 2026-05-05 13:02 | 53.35158 | -3.49016 | 35716 ft | 466 kts | 133° |
| 2026-05-05 13:02 | 53.33006 | -3.44957 | 36015 ft | 466 kts | 133° |
| 2026-05-05 13:02 | 53.30861 | -3.40885 | 36336 ft | 466 kts | 133° |
| 2026-05-05 13:02 | 53.28714 | -3.36810 | 36585 ft | 467 kts | 133° |
| 2026-05-05 13:03 | 53.26567 | -3.32738 | 36896 ft | 467 kts | 132° |
| 2026-05-05 13:03 | 53.24423 | -3.28680 | 37231 ft | 466 kts | 133° |
| 2026-05-05 13:03 | 53.22271 | -3.24612 | 37454 ft | 468 kts | 133° |
| 2026-05-05 13:03 | 53.20138 | -3.20592 | 37657 ft | 469 kts | 133° |
| 2026-05-05 13:04 | 53.17975 | -3.16523 | 37962 ft | 469 kts | 133° |
| 2026-05-05 13:04 | 53.15805 | -3.12448 | 38151 ft | 472 kts | 133° |
| 2026-05-05 13:04 | 53.13621 | -3.08354 | 38412 ft | 471 kts | 133° |
| 2026-05-05 13:04 | 53.11455 | -3.04298 | 38874 ft | 467 kts | 133° |
| 2026-05-05 13:05 | 53.09295 | -3.00256 | 39028 ft | 469 kts | 133° |
| 2026-05-05 13:05 | 53.07114 | -2.96182 | 39046 ft | 473 kts | 133° |
| 2026-05-05 13:05 | 53.02740 | -2.88033 | 39042 ft | 470 kts | 133° |
| 2026-05-05 13:06 | 52.98421 | -2.80015 | 39031 ft | 467 kts | 133° |
| 2026-05-05 13:06 | 52.94094 | -2.72005 | 39017 ft | 465 kts | 133° |
| 2026-05-05 13:07 | 52.89777 | -2.64034 | 39027 ft | 464 kts | 133° |
| 2026-05-05 13:07 | 52.85461 | -2.56088 | 39022 ft | 464 kts | 133° |
| 2026-05-05 13:08 | 52.81167 | -2.48208 | 39027 ft | 465 kts | 133° |
| 2026-05-05 13:08 | 52.76823 | -2.40278 | 39025 ft | 466 kts | 133° |
| 2026-05-05 13:09 | 52.72458 | -2.32339 | 39014 ft | 468 kts | 134° |
| 2026-05-05 13:09 | 52.68075 | -2.24388 | 39032 ft | 469 kts | 133° |
| 2026-05-05 13:10 | 52.63713 | -2.16496 | 39026 ft | 469 kts | 134° |
| 2026-05-05 13:10 | 52.59309 | -2.08555 | 39020 ft | 469 kts | 133° |
| 2026-05-05 13:11 | 52.54901 | -2.00631 | 39026 ft | 470 kts | 134° |
| 2026-05-05 13:11 | 52.50493 | -1.92730 | 39008 ft | 469 kts | 134° |
| 2026-05-05 13:12 | 52.46115 | -1.84912 | 38989 ft | 468 kts | 134° |
| 2026-05-05 13:12 | 52.41717 | -1.77077 | 38991 ft | 467 kts | 134° |
| 2026-05-05 13:13 | 52.37320 | -1.69268 | 38991 ft | 466 kts | 133° |
| 2026-05-05 13:13 | 52.33671 | -1.60532 | 39005 ft | 467 kts | 118° |
| 2026-05-05 13:14 | 52.30737 | -1.51110 | 38994 ft | 468 kts | 118° |
| 2026-05-05 13:14 | 52.27774 | -1.41655 | 39000 ft | 467 kts | 118° |
| 2026-05-05 13:15 | 52.24763 | -1.32268 | 38985 ft | 466 kts | 119° |
| 2026-05-05 13:15 | 52.21742 | -1.22932 | 38993 ft | 465 kts | 119° |
| 2026-05-05 13:16 | 52.18721 | -1.13619 | 38992 ft | 465 kts | 119° |
| 2026-05-05 13:16 | 52.15379 | -1.04728 | 39003 ft | 463 kts | 126° |
| 2026-05-05 13:17 | 52.11680 | -0.96154 | 38975 ft | 463 kts | 126° |
| 2026-05-05 13:17 | 52.07991 | -0.87521 | 38982 ft | 466 kts | 126° |
| 2026-05-05 13:18 | 52.04323 | -0.78808 | 38970 ft | 468 kts | 126° |
| 2026-05-05 13:18 | 52.00661 | -0.70159 | 38971 ft | 468 kts | 126° |
| 2026-05-05 13:19 | 51.96926 | -0.61508 | 38958 ft | 468 kts | 126° |
| 2026-05-05 13:19 | 51.93203 | -0.52894 | 38961 ft | 465 kts | 126° |
| 2026-05-05 13:20 | 51.89523 | -0.44319 | 38961 ft | 463 kts | 126° |
| 2026-05-05 13:20 | 51.85872 | -0.35821 | 38974 ft | 463 kts | 126° |
| 2026-05-05 13:21 | 51.82188 | -0.27281 | 38968 ft | 463 kts | 126° |
| 2026-05-05 13:21 | 51.78499 | -0.18758 | 39001 ft | 462 kts | 126° |
| 2026-05-05 13:22 | 51.74811 | -0.10268 | 38978 ft | 461 kts | 126° |
| 2026-05-05 13:22 | 51.71298 | -0.01623 | 38989 ft | 461 kts | 123° |
| 2026-05-05 13:23 | 51.67888 | 0.07029 | 38966 ft | 459 kts | 124° |
| 2026-05-05 13:23 | 51.64418 | 0.15659 | 38963 ft | 458 kts | 124° |
| 2026-05-05 13:24 | 51.60996 | 0.24301 | 38962 ft | 458 kts | 123° |
| 2026-05-05 13:24 | 51.57602 | 0.32964 | 38966 ft | 458 kts | 124° |
| 2026-05-05 13:25 | 51.54220 | 0.41554 | 38963 ft | 458 kts | 124° |
| 2026-05-05 13:25 | 51.50803 | 0.50184 | 38958 ft | 458 kts | 124° |
| 2026-05-05 13:26 | 51.47382 | 0.58791 | 38967 ft | 457 kts | 124° |
| 2026-05-05 13:26 | 51.43954 | 0.67383 | 38966 ft | 458 kts | 124° |
| 2026-05-05 13:27 | 51.40543 | 0.75909 | 38965 ft | 458 kts | 124° |
| 2026-05-05 13:27 | 51.37096 | 0.84496 | 38962 ft | 458 kts | 124° |
| 2026-05-05 13:28 | 51.33647 | 0.93060 | 38966 ft | 458 kts | 124° |
| 2026-05-05 13:28 | 51.30184 | 1.01634 | 38953 ft | 460 kts | 124° |
| 2026-05-05 13:29 | 51.26697 | 1.10248 | 38960 ft | 463 kts | 124° |
| 2026-05-05 13:29 | 51.23223 | 1.18849 | 38959 ft | 465 kts | 124° |
| 2026-05-05 13:30 | 51.19711 | 1.27518 | 38956 ft | 466 kts | 125° |
| 2026-05-05 13:30 | 51.16782 | 1.36724 | 38958 ft | 469 kts | 109° |
| 2026-05-05 13:31 | 51.15620 | 1.46881 | 38964 ft | 472 kts | 96° |
| 2026-05-05 13:31 | 51.15193 | 1.57315 | 38950 ft | 472 kts | 95° |
| 2026-05-05 13:32 | 51.14744 | 1.67743 | 38952 ft | 472 kts | 96° |
| 2026-05-05 13:32 | 51.14231 | 1.78158 | 38950 ft | 472 kts | 96° |
| 2026-05-05 13:33 | 51.13698 | 1.88498 | 38933 ft | 472 kts | 96° |
| 2026-05-05 13:33 | 51.13158 | 1.98898 | 38936 ft | 471 kts | 97° |
| 2026-05-05 13:34 | 51.12609 | 2.09275 | 38934 ft | 470 kts | 97° |
| 2026-05-05 13:34 | 51.12052 | 2.19639 | 38938 ft | 469 kts | 96° |
| 2026-05-05 13:35 | 51.11773 | 2.24771 | 38544 ft | 475 kts | 97° |
| 2026-05-05 13:35 | 51.11488 | 2.29982 | 37935 ft | 470 kts | 97° |
| 2026-05-05 13:35 | 51.11203 | 2.35151 | 37117 ft | 469 kts | 97° |
| 2026-05-05 13:35 | 51.10917 | 2.40310 | 36367 ft | 466 kts | 97° |
| 2026-05-05 13:36 | 51.10629 | 2.45434 | 35578 ft | 465 kts | 97° |
| 2026-05-05 13:36 | 51.10340 | 2.50558 | 34721 ft | 465 kts | 97° |
| 2026-05-05 13:36 | 51.10048 | 2.55684 | 33836 ft | 465 kts | 97° |
| 2026-05-05 13:36 | 51.09755 | 2.60805 | 32783 ft | 465 kts | 97° |
| 2026-05-05 13:37 | 51.09448 | 2.65849 | 31806 ft | 464 kts | 100° |
| 2026-05-05 13:37 | 51.08950 | 2.70842 | 31104 ft | 454 kts | 102° |
| 2026-05-05 13:37 | 51.08355 | 2.75818 | 29963 ft | 459 kts | 103° |
| 2026-05-05 13:37 | 51.07719 | 2.80802 | 28636 ft | 461 kts | 104° |
| 2026-05-05 13:38 | 51.07074 | 2.85799 | 27342 ft | 462 kts | 103° |
| 2026-05-05 13:38 | 51.06437 | 2.90801 | 26076 ft | 462 kts | 103° |
| 2026-05-05 13:38 | 51.05811 | 2.95799 | 25031 ft | 458 kts | 103° |
| 2026-05-05 13:38 | 51.05209 | 3.00673 | 24071 ft | 453 kts | 103° |
| 2026-05-05 13:39 | 51.04608 | 3.05555 | 23012 ft | 448 kts | 103° |
| 2026-05-05 13:39 | 51.04015 | 3.10381 | 21959 ft | 441 kts | 103° |
| 2026-05-05 13:39 | 51.03431 | 3.15123 | 21003 ft | 434 kts | 103° |
| 2026-05-05 13:39 | 51.02853 | 3.19791 | 20044 ft | 427 kts | 103° |
| 2026-05-05 13:40 | 51.02284 | 3.24376 | 19100 ft | 421 kts | 102° |
| 2026-05-05 13:40 | 51.01719 | 3.28899 | 18175 ft | 415 kts | 102° |
| 2026-05-05 13:40 | 51.01160 | 3.33360 | 17130 ft | 409 kts | 102° |
| 2026-05-05 13:40 | 51.00607 | 3.37757 | 16202 ft | 402 kts | 102° |
| 2026-05-05 13:41 | 51.00071 | 3.42005 | 15298 ft | 395 kts | 101° |
| 2026-05-05 13:41 | 50.99534 | 3.46249 | 14390 ft | 390 kts | 101° |
| 2026-05-05 13:41 | 50.99002 | 3.50437 | 13474 ft | 385 kts | 101° |
| 2026-05-05 13:41 | 50.98476 | 3.54573 | 12530 ft | 379 kts | 101° |
| 2026-05-05 13:42 | 50.97957 | 3.58644 | 11621 ft | 374 kts | 101° |
| 2026-05-05 13:42 | 50.97440 | 3.62685 | 10700 ft | 373 kts | 101° |
| 2026-05-05 13:42 | 50.96938 | 3.66591 | 10557 ft | 350 kts | 101° |
| 2026-05-05 13:42 | 50.96471 | 3.70219 | 10391 ft | 331 kts | 101° |
| 2026-05-05 13:43 | 50.96023 | 3.73693 | 10252 ft | 314 kts | 101° |
| 2026-05-05 13:43 | 50.95595 | 3.76999 | 10121 ft | 298 kts | 101° |
| 2026-05-05 13:43 | 50.95189 | 3.80142 | 9999 ft | 284 kts | 101° |
| 2026-05-05 13:43 | 50.94799 | 3.83143 | 9876 ft | 272 kts | 101° |
| 2026-05-05 13:44 | 50.94420 | 3.86065 | 9511 ft | 270 kts | 101° |
| 2026-05-05 13:44 | 50.94044 | 3.88958 | 9161 ft | 267 kts | 101° |
| 2026-05-05 13:44 | 50.93669 | 3.91829 | 8796 ft | 265 kts | 101° |
| 2026-05-05 13:44 | 50.93299 | 3.94647 | 8423 ft | 264 kts | 101° |
| 2026-05-05 13:45 | 50.92926 | 3.97484 | 8080 ft | 262 kts | 102° |
| 2026-05-05 13:45 | 50.92224 | 4.00104 | 7861 ft | 257 kts | 125° |
| 2026-05-05 13:45 | 50.91093 | 4.02310 | 7715 ft | 259 kts | 124° |
| 2026-05-05 13:45 | 50.90274 | 4.04857 | 7564 ft | 261 kts | 111° |
| 2026-05-05 13:46 | 50.89561 | 4.07517 | 7407 ft | 263 kts | 112° |
| 2026-05-05 13:46 | 50.88840 | 4.10181 | 7249 ft | 263 kts | 112° |
| 2026-05-05 13:46 | 50.88121 | 4.12836 | 7106 ft | 262 kts | 112° |
| 2026-05-05 13:46 | 50.87415 | 4.15453 | 6971 ft | 261 kts | 112° |
| 2026-05-05 13:47 | 50.86703 | 4.18079 | 6826 ft | 258 kts | 112° |
| 2026-05-05 13:47 | 50.85994 | 4.20679 | 6678 ft | 256 kts | 112° |
| 2026-05-05 13:47 | 50.85283 | 4.23264 | 6497 ft | 256 kts | 112° |
| 2026-05-05 13:47 | 50.84572 | 4.25849 | 6346 ft | 256 kts | 112° |
| 2026-05-05 13:48 | 50.83865 | 4.28430 | 6204 ft | 255 kts | 112° |
| 2026-05-05 13:48 | 50.83156 | 4.31014 | 6053 ft | 256 kts | 112° |
| 2026-05-05 13:48 | 50.82446 | 4.33593 | 5897 ft | 256 kts | 112° |
| 2026-05-05 13:48 | 50.81727 | 4.36168 | 5758 ft | 256 kts | 112° |
| 2026-05-05 13:49 | 50.81002 | 4.38752 | 5603 ft | 257 kts | 112° |
| 2026-05-05 13:49 | 50.80284 | 4.41302 | 5452 ft | 259 kts | 112° |
| 2026-05-05 13:49 | 50.79555 | 4.43908 | 5297 ft | 259 kts | 112° |
| 2026-05-05 13:49 | 50.78824 | 4.46493 | 5157 ft | 256 kts | 112° |
| 2026-05-05 13:50 | 50.78101 | 4.49031 | 4987 ft | 251 kts | 112° |
| 2026-05-05 13:50 | 50.77378 | 4.51528 | 4840 ft | 251 kts | 112° |
| 2026-05-05 13:50 | 50.76645 | 4.54045 | 4688 ft | 253 kts | 112° |
| 2026-05-05 13:50 | 50.75901 | 4.56562 | 4528 ft | 254 kts | 116° |
| 2026-05-05 13:51 | 50.74713 | 4.58633 | 4352 ft | 260 kts | 145° |
| 2026-05-05 13:51 | 50.73027 | 4.59584 | 4215 ft | 265 kts | 168° |
| 2026-05-05 13:51 | 50.71199 | 4.59956 | 4074 ft | 265 kts | 172° |
| 2026-05-05 13:51 | 50.69369 | 4.60278 | 3911 ft | 265 kts | 171° |
| 2026-05-05 13:52 | 50.67584 | 4.60971 | 3757 ft | 263 kts | 161° |
| 2026-05-05 13:52 | 50.65831 | 4.61813 | 3607 ft | 263 kts | 161° |
| 2026-05-05 13:52 | 50.64082 | 4.62636 | 3446 ft | 261 kts | 161° |
| 2026-05-05 13:52 | 50.62339 | 4.63383 | 3273 ft | 261 kts | 169° |
| 2026-05-05 13:53 | 50.60530 | 4.63678 | 3161 ft | 262 kts | 173° |
| 2026-05-05 13:53 | 50.58716 | 4.63931 | 3058 ft | 262 kts | 173° |
| 2026-05-05 13:53 | 50.56925 | 4.64181 | 2967 ft | 259 kts | 173° |
| 2026-05-05 13:53 | 50.55180 | 4.64419 | 2954 ft | 244 kts | 173° |
| 2026-05-05 13:54 | 50.53541 | 4.64624 | 2951 ft | 228 kts | 174° |
| 2026-05-05 13:54 | 50.52062 | 4.64252 | 2951 ft | 209 kts | 211° |
| 2026-05-05 13:54 | 50.51144 | 4.62646 | 2821 ft | 194 kts | 242° |
| 2026-05-05 13:54 | 50.50513 | 4.60813 | 2555 ft | 188 kts | 246° |
| 2026-05-05 13:55 | 50.49974 | 4.59012 | 2298 ft | 177 kts | 248° |
| 2026-05-05 13:55 | 50.49488 | 4.57340 | 2113 ft | 158 kts | 249° |
| 2026-05-05 13:55 | 50.49057 | 4.55859 | 1865 ft | 144 kts | 249° |
| 2026-05-05 13:55 | 50.48647 | 4.54449 | 1686 ft | 143 kts | 250° |
| 2026-05-05 13:56 | 50.48239 | 4.53045 | 1489 ft | 141 kts | 250° |
| 2026-05-05 13:56 | 50.47835 | 4.51658 | 1297 ft | 138 kts | 250° |
| 2026-05-05 13:56 | 50.47438 | 4.50294 | 1092 ft | 138 kts | 250° |
| 2026-05-05 13:56 | 50.47044 | 4.48936 | 890 ft | 135 kts | 249° |
| 2026-05-05 13:57 | 50.46645 | 4.47563 | 732 ft | 141 kts | 251° |
| 2026-05-05 13:57 | 50.46246 | 4.46182 | 590 ft | 132 kts | 248° |
| 2026-05-05 13:57 | 50.46070 | 4.45581 | 592 ft | 6 kts | 245° |
| 2026-05-05 13:57 | 50.46051 | 4.45515 | 592 ft | 7 kts | 245° |
| 2026-05-05 13:58 | 50.46009 | 4.45478 | 592 ft | 9 kts | 167° |
| 2026-05-05 13:58 | 50.45985 | 4.45497 | 592 ft | 3 kts | 160° |
| 2026-05-05 13:58 | 50.45953 | 4.45525 | 592 ft | 7 kts | 135° |
| 2026-05-05 13:58 | 50.45958 | 4.45600 | 592 ft | 9 kts | 64° |
| 2026-05-05 13:59 | 50.46025 | 4.45831 | 593 ft | 13 kts | 66° |
| 2026-05-05 13:59 | 50.46049 | 4.45963 | 595 ft | 13 kts | 81° |
| 2026-05-05 14:00 | 50.46121 | 4.46272 | 594 ft | 13 kts | 65° |
| 2026-05-05 14:00 | 50.46145 | 4.46356 | 592 ft | 9 kts | 66° |
| 2026-05-05 14:00 | 50.46093 | 4.46387 | 594 ft | 0 kts | 335° |
| 2026-05-05 14:03 | 50.46124 | 4.46477 | 592 ft | 0 kts | 335° |